createdAt,value
2023-03-23T00:00:18.972Z,0.00
2023-03-23T00:01:18.989Z,0.00
2023-03-23T00:02:18.970Z,0.00
2023-03-23T00:03:18.960Z,0.00
2023-03-23T00:04:18.940Z,0.00
2023-03-23T00:05:18.923Z,0.00
2023-03-23T00:06:18.929Z,0.00
2023-03-23T00:07:18.923Z,0.00
2023-03-23T00:08:18.900Z,0.00
2023-03-23T00:09:18.918Z,0.00
2023-03-23T00:10:18.895Z,0.00
2023-03-23T00:11:18.891Z,1.00
2023-03-23T00:12:18.875Z,1.00
2023-03-23T00:13:18.861Z,1.00
2023-03-23T00:14:18.887Z,1.00
2023-03-23T00:15:18.846Z,1.00
2023-03-23T00:16:18.844Z,1.00
2023-03-23T00:17:18.823Z,1.00
2023-03-23T00:18:18.816Z,0.00
2023-03-23T00:19:18.809Z,1.00
2023-03-23T00:20:18.830Z,1.00
2023-03-23T00:21:18.807Z,1.00
2023-03-23T00:22:18.793Z,1.00
2023-03-23T00:23:18.765Z,1.00
2023-03-23T00:24:18.784Z,1.00
2023-03-23T00:25:18.791Z,1.00
2023-03-23T00:26:18.794Z,1.00
2023-03-23T00:27:18.746Z,1.00
2023-03-23T00:28:18.749Z,1.00
2023-03-23T00:29:18.721Z,1.00
2023-03-23T00:30:18.739Z,1.00
2023-03-23T00:31:18.720Z,1.00
2023-03-23T00:32:18.722Z,1.00
2023-03-23T00:33:18.696Z,1.00
2023-03-23T00:34:18.691Z,0.00
2023-03-23T00:35:18.731Z,1.00
2023-03-23T00:36:18.697Z,1.00
2023-03-23T00:37:18.667Z,1.00
2023-03-23T00:38:18.669Z,1.00
2023-03-23T00:39:18.647Z,1.00
2023-03-23T00:40:18.664Z,1.00
2023-03-23T00:41:18.647Z,1.00
2023-03-23T00:42:18.624Z,0.00
2023-03-23T00:43:18.613Z,1.00
2023-03-23T00:44:18.610Z,1.00
2023-03-23T00:45:18.638Z,1.00
2023-03-23T00:46:18.607Z,1.00
2023-03-23T00:47:18.581Z,1.00
2023-03-23T00:48:18.567Z,1.00
2023-03-23T00:49:18.608Z,1.00
2023-03-23T00:50:22.237Z,0.00
2023-03-23T00:51:18.550Z,0.00
2023-03-23T00:52:18.546Z,1.00
2023-03-23T00:53:18.530Z,1.00
2023-03-23T00:54:18.522Z,1.00
2023-03-23T00:55:18.541Z,1.00
2023-03-23T00:56:18.513Z,1.00
2023-03-23T00:57:18.498Z,0.00
2023-03-23T00:58:18.499Z,0.00
2023-03-23T00:59:18.486Z,1.00
2023-03-23T01:00:18.494Z,0.00
2023-03-23T01:01:18.467Z,1.00
2023-03-23T01:02:18.455Z,1.00
2023-03-23T01:03:18.464Z,0.00
2023-03-23T01:04:18.442Z,1.00
2023-03-23T01:05:18.433Z,1.00
2023-03-23T01:06:18.430Z,1.00
2023-03-23T01:07:18.414Z,1.00
2023-03-23T01:08:18.426Z,1.00
2023-03-23T01:09:18.401Z,1.00
2023-03-23T01:10:18.391Z,1.00
2023-03-23T01:11:18.400Z,1.00
2023-03-23T01:12:18.376Z,1.00
2023-03-23T01:13:18.370Z,1.00
2023-03-23T01:14:18.361Z,1.00
2023-03-23T01:15:18.346Z,1.00
2023-03-23T01:16:18.347Z,0.00
2023-03-23T01:17:18.364Z,0.00
2023-03-23T01:18:18.335Z,1.00
2023-03-23T01:19:19.326Z,0.00
2023-03-23T01:20:18.319Z,1.00
2023-03-23T01:21:18.307Z,1.00
2023-03-23T01:22:18.307Z,1.00
2023-03-23T01:23:18.306Z,1.00
2023-03-23T01:24:18.284Z,1.00
2023-03-23T01:25:18.304Z,1.00
2023-03-23T01:26:18.275Z,1.00
2023-03-23T01:27:18.258Z,0.00
2023-03-23T01:28:18.258Z,0.00
2023-03-23T01:29:18.254Z,1.00
2023-03-23T01:30:18.240Z,1.00
2023-03-23T01:31:18.303Z,1.00
2023-03-23T01:32:18.234Z,1.00
2023-03-23T01:33:18.217Z,1.00
2023-03-23T01:34:18.205Z,1.00
2023-03-23T01:35:18.213Z,1.00
2023-03-23T01:36:18.199Z,0.00
2023-03-23T01:37:18.205Z,1.00
2023-03-23T01:38:18.189Z,1.00
2023-03-23T01:39:18.174Z,1.00
2023-03-23T01:40:18.167Z,1.00
2023-03-23T01:41:18.159Z,1.00
2023-03-23T01:42:18.177Z,1.00
2023-03-23T01:43:18.134Z,0.00
2023-03-23T01:44:18.157Z,1.00
2023-03-23T01:45:18.130Z,0.00
2023-03-23T01:46:18.122Z,0.00
2023-03-23T01:47:18.111Z,1.00
2023-03-23T01:48:18.129Z,0.00
2023-03-23T01:49:18.119Z,0.00
2023-03-23T01:50:18.093Z,1.00
2023-03-23T01:51:18.090Z,1.00
2023-03-23T01:52:18.085Z,1.00
2023-03-23T01:53:18.074Z,1.00
2023-03-23T01:54:18.077Z,1.00
2023-03-23T01:55:18.086Z,0.00
2023-03-23T01:56:18.047Z,1.00
2023-03-23T01:57:18.048Z,1.00
2023-03-23T01:58:18.072Z,1.00
2023-03-23T01:59:18.024Z,1.00
2023-03-23T02:00:18.014Z,1.00
2023-03-23T02:01:18.032Z,1.00
2023-03-23T02:02:17.997Z,1.00
2023-03-23T02:03:17.989Z,1.00
2023-03-23T02:04:17.980Z,1.00
2023-03-23T02:05:17.981Z,1.00
2023-03-23T02:06:17.992Z,1.00
2023-03-23T02:07:17.958Z,1.00
2023-03-23T02:08:17.951Z,1.00
2023-03-23T02:09:17.946Z,1.00
2023-03-23T02:10:17.946Z,1.00
2023-03-23T02:11:22.018Z,0.00
2023-03-23T02:12:17.934Z,1.00
2023-03-23T02:13:17.909Z,1.00
2023-03-23T02:14:17.902Z,1.00
2023-03-23T02:15:17.894Z,1.00
2023-03-23T02:16:17.910Z,1.00
2023-03-23T02:17:17.874Z,1.00
2023-03-23T02:18:17.873Z,1.00
2023-03-23T02:19:17.864Z,1.00
2023-03-23T02:20:17.861Z,1.00
2023-03-23T02:21:17.852Z,1.00
2023-03-23T02:22:17.865Z,1.00
2023-03-23T02:23:17.829Z,1.00
2023-03-23T02:24:17.846Z,1.00
2023-03-23T02:25:17.828Z,1.00
2023-03-23T02:26:17.810Z,1.00
2023-03-23T02:27:17.796Z,1.00
2023-03-23T02:28:17.807Z,1.00
2023-03-23T02:29:17.805Z,1.00
2023-03-23T02:30:17.774Z,1.00
2023-03-23T02:31:17.767Z,1.00
2023-03-23T02:32:17.767Z,1.00
2023-03-23T02:33:17.760Z,1.00
2023-03-23T02:34:17.745Z,1.00
2023-03-23T02:35:17.773Z,1.00
2023-03-23T02:36:17.752Z,1.00
2023-03-23T02:37:17.718Z,1.00
2023-03-23T02:38:17.720Z,1.00
2023-03-23T02:39:17.704Z,1.00
2023-03-23T02:40:17.702Z,1.00
2023-03-23T02:41:17.677Z,1.00
2023-03-23T02:42:17.740Z,1.00
2023-03-23T02:43:17.669Z,1.00
2023-03-23T02:44:17.661Z,1.00
2023-03-23T02:45:17.656Z,1.00
2023-03-23T02:46:17.644Z,1.00
2023-03-23T02:47:17.643Z,0.00
2023-03-23T02:48:17.652Z,1.00
2023-03-23T02:49:17.623Z,1.00
2023-03-23T02:50:17.614Z,1.00
2023-03-23T02:51:17.604Z,1.00
2023-03-23T02:52:17.612Z,1.00
2023-03-23T02:53:17.624Z,1.00
2023-03-23T02:54:17.592Z,1.00
2023-03-23T02:55:17.588Z,1.00
2023-03-23T02:56:17.576Z,1.00
2023-03-23T02:57:17.578Z,1.00
2023-03-23T02:58:17.577Z,1.00
2023-03-23T02:59:17.552Z,1.00
2023-03-23T03:00:17.561Z,1.00
2023-03-23T03:01:17.543Z,1.00
2023-03-23T03:02:17.530Z,1.00
2023-03-23T03:03:17.521Z,1.00
2023-03-23T03:04:17.535Z,1.00
2023-03-23T03:05:17.519Z,1.00
2023-03-23T03:06:17.511Z,1.00
2023-03-23T03:07:17.514Z,1.00
2023-03-23T03:08:17.480Z,1.00
2023-03-23T03:09:17.465Z,1.00
2023-03-23T03:10:17.547Z,1.00
2023-03-23T03:11:17.466Z,1.00
2023-03-23T03:12:17.444Z,1.00
2023-03-23T03:13:17.449Z,1.00
2023-03-23T03:14:17.442Z,1.00
2023-03-23T03:15:17.417Z,1.00
2023-03-23T03:16:17.436Z,1.00
2023-03-23T03:17:17.425Z,1.00
2023-03-23T03:18:17.431Z,1.00
2023-03-23T03:19:18.330Z,1.00
2023-03-23T03:20:17.386Z,1.00
2023-03-23T03:21:17.387Z,1.00
2023-03-23T03:22:17.384Z,1.00
2023-03-23T03:23:17.359Z,1.00
2023-03-23T03:24:17.377Z,1.00
2023-03-23T03:25:18.619Z,1.00
2023-03-23T03:26:17.345Z,1.00
2023-03-23T03:27:17.331Z,1.00
2023-03-23T03:28:17.329Z,1.00
2023-03-23T03:29:17.346Z,1.00
2023-03-23T03:30:17.321Z,1.00
2023-03-23T03:31:17.303Z,1.00
2023-03-23T03:32:17.300Z,1.00
2023-03-23T03:33:17.313Z,1.00
2023-03-23T03:34:17.306Z,1.00
2023-03-23T03:35:17.307Z,1.00
2023-03-23T03:36:17.296Z,1.00
2023-03-23T03:37:17.256Z,1.00
2023-03-23T03:38:17.246Z,1.00
2023-03-23T03:39:17.243Z,1.00
2023-03-23T03:40:17.243Z,1.00
2023-03-23T03:41:17.250Z,1.00
2023-03-23T03:42:17.222Z,1.00
2023-03-23T03:43:17.243Z,1.00
2023-03-23T03:44:17.251Z,1.00
2023-03-23T03:45:17.203Z,1.00
2023-03-23T03:46:17.190Z,1.00
2023-03-23T03:47:17.189Z,1.00
2023-03-23T03:48:17.184Z,1.00
2023-03-23T03:49:17.202Z,1.00
2023-03-23T03:50:17.163Z,1.00
2023-03-23T03:51:17.152Z,1.00
2023-03-23T03:52:17.142Z,1.00
2023-03-23T03:53:17.151Z,1.00
2023-03-23T03:54:18.135Z,1.00
2023-03-23T03:55:17.132Z,1.00
2023-03-23T03:56:17.107Z,1.00
2023-03-23T03:57:17.098Z,1.00
2023-03-23T03:58:17.119Z,1.00
2023-03-23T03:59:21.640Z,1.00
2023-03-23T04:00:18.074Z,1.00
2023-03-23T04:01:17.068Z,1.00
2023-03-23T04:02:17.088Z,1.00
2023-03-23T04:03:17.051Z,1.00
2023-03-23T04:04:17.039Z,1.00
2023-03-23T04:05:17.044Z,1.00
2023-03-23T04:06:17.027Z,1.00
2023-03-23T04:07:17.011Z,1.00
2023-03-23T04:08:17.042Z,1.00
2023-03-23T04:09:17.004Z,1.00
2023-03-23T04:10:16.987Z,1.00
2023-03-23T04:11:32.629Z,1.00
2023-03-23T04:12:16.972Z,1.00
2023-03-23T04:13:16.973Z,1.00
2023-03-23T04:14:16.983Z,1.00
2023-03-23T04:15:16.987Z,1.00
2023-03-23T04:16:16.946Z,1.00
2023-03-23T04:17:16.935Z,1.00
2023-03-23T04:18:16.925Z,1.00
2023-03-23T04:19:16.939Z,1.00
2023-03-23T04:20:16.914Z,1.00
2023-03-23T04:21:17.902Z,1.00
2023-03-23T04:22:16.900Z,1.00
2023-03-23T04:23:16.899Z,1.00
2023-03-23T04:24:23.371Z,1.00
2023-03-23T04:25:17.892Z,1.00
2023-03-23T04:26:16.864Z,1.00
2023-03-23T04:27:16.851Z,1.00
2023-03-23T04:28:16.880Z,1.00
2023-03-23T04:29:16.835Z,1.00
2023-03-23T04:30:16.836Z,1.00
2023-03-23T04:31:16.836Z,1.00
2023-03-23T04:32:16.820Z,1.00
2023-03-23T04:33:16.811Z,1.00
2023-03-23T04:34:17.820Z,1.00
2023-03-23T04:35:16.785Z,1.00
2023-03-23T04:36:16.815Z,1.00
2023-03-23T04:37:16.802Z,1.00
2023-03-23T04:38:16.764Z,1.00
2023-03-23T04:39:16.756Z,1.00
2023-03-23T04:40:16.754Z,1.00
2023-03-23T04:41:16.738Z,1.00
2023-03-23T04:42:16.735Z,1.00
2023-03-23T04:43:16.744Z,1.00
2023-03-23T04:44:16.713Z,1.00
2023-03-23T04:45:16.712Z,1.00
2023-03-23T04:46:16.701Z,1.00
2023-03-23T04:47:16.704Z,0.00
2023-03-23T04:48:16.693Z,0.00
2023-03-23T04:49:16.672Z,0.00
2023-03-23T04:50:16.699Z,0.00
2023-03-23T04:51:16.674Z,0.00
2023-03-23T04:52:16.658Z,0.00
2023-03-23T04:53:16.639Z,0.00
2023-03-23T04:54:16.640Z,0.00
2023-03-23T04:55:16.619Z,0.00
2023-03-23T04:56:16.632Z,0.00
2023-03-23T04:57:16.605Z,1.00
2023-03-23T04:58:16.602Z,1.00
2023-03-23T04:59:16.586Z,1.00
2023-03-23T05:00:16.581Z,1.00
2023-03-23T05:01:16.583Z,1.00
2023-03-23T05:02:16.590Z,1.00
2023-03-23T05:03:16.566Z,2.00
2023-03-23T05:04:16.557Z,1.00
2023-03-23T05:05:16.537Z,1.00
2023-03-23T05:06:16.534Z,1.00
2023-03-23T05:07:16.526Z,2.00
2023-03-23T05:08:16.529Z,2.00
2023-03-23T05:09:16.502Z,2.00
2023-03-23T05:10:16.503Z,3.00
2023-03-23T05:11:17.489Z,2.00
2023-03-23T05:12:16.484Z,3.00
2023-03-23T05:13:16.489Z,3.00
2023-03-23T05:14:16.470Z,4.00
2023-03-23T05:15:16.455Z,3.00
2023-03-23T05:16:16.462Z,4.00
2023-03-23T05:17:16.429Z,6.00
2023-03-23T05:18:16.420Z,6.00
2023-03-23T05:19:16.436Z,6.00
2023-03-23T05:20:16.424Z,6.00
2023-03-23T05:21:16.408Z,5.00
2023-03-23T05:22:16.406Z,7.00
2023-03-23T05:23:16.394Z,8.00
2023-03-23T05:24:16.385Z,8.00
2023-03-23T05:25:16.395Z,8.00
2023-03-23T05:26:16.372Z,8.00
2023-03-23T05:27:16.368Z,9.00
2023-03-23T05:28:16.374Z,9.00
2023-03-23T05:29:16.350Z,8.00
2023-03-23T05:30:16.379Z,13.00
2023-03-23T05:31:16.356Z,15.00
2023-03-23T05:32:16.345Z,17.00
2023-03-23T05:33:16.318Z,21.00
2023-03-23T05:34:16.315Z,23.00
2023-03-23T05:35:16.309Z,27.00
2023-03-23T05:36:16.328Z,29.00
2023-03-23T05:37:16.291Z,32.00
2023-03-23T05:38:16.281Z,33.00
2023-03-23T05:39:16.272Z,36.00
2023-03-23T05:40:16.269Z,40.00
2023-03-23T05:41:16.910Z,42.00
2023-03-23T05:42:16.274Z,43.00
2023-03-23T05:43:16.237Z,43.00
2023-03-23T05:44:16.251Z,43.00
2023-03-23T05:45:16.229Z,42.00
2023-03-23T05:46:16.233Z,42.00
2023-03-23T05:47:16.246Z,41.00
2023-03-23T05:48:16.204Z,42.00
2023-03-23T05:49:16.199Z,42.00
2023-03-23T05:50:16.209Z,39.00
2023-03-23T05:51:16.168Z,35.00
2023-03-23T05:52:16.192Z,37.00
2023-03-23T05:53:16.168Z,43.00
2023-03-23T05:54:16.172Z,49.00
2023-03-23T05:55:16.144Z,56.00
2023-03-23T05:56:16.139Z,61.00
2023-03-23T05:57:16.135Z,65.00
2023-03-23T05:58:16.131Z,72.00
2023-03-23T05:59:16.116Z,77.00
2023-03-23T06:00:16.135Z,82.00
2023-03-23T06:01:16.095Z,88.00
2023-03-23T06:02:16.096Z,91.00
2023-03-23T06:03:16.089Z,96.00
2023-03-23T06:04:16.081Z,96.00
2023-03-23T06:05:16.069Z,96.00
2023-03-23T06:06:16.086Z,96.00
2023-03-23T06:07:16.063Z,96.00
2023-03-23T06:08:16.047Z,95.00
2023-03-23T06:09:16.033Z,94.00
2023-03-23T06:10:16.066Z,93.00
2023-03-23T06:11:16.024Z,89.00
2023-03-23T06:12:16.017Z,89.00
2023-03-23T06:13:16.006Z,85.00
2023-03-23T06:14:16.003Z,84.00
2023-03-23T06:15:16.038Z,84.00
2023-03-23T06:16:15.993Z,83.00
2023-03-23T06:17:15.983Z,84.00
2023-03-23T06:18:15.977Z,86.00
2023-03-23T06:19:15.969Z,90.00
2023-03-23T06:20:15.962Z,95.00
2023-03-23T06:21:18.557Z,96.00
2023-03-23T06:22:15.952Z,103.00
2023-03-23T06:23:15.938Z,113.00
2023-03-23T06:24:15.951Z,120.00
2023-03-23T06:25:15.922Z,132.00
2023-03-23T06:26:15.926Z,142.00
2023-03-23T06:27:17.093Z,153.00
2023-03-23T06:28:15.913Z,171.00
2023-03-23T06:29:15.890Z,188.00
2023-03-23T06:30:15.894Z,201.00
2023-03-23T06:31:15.888Z,214.00
2023-03-23T06:32:15.879Z,226.00
2023-03-23T06:33:15.883Z,234.00
2023-03-23T06:34:15.863Z,241.00
2023-03-23T06:35:15.857Z,244.00
2023-03-23T06:36:15.958Z,239.00
2023-03-23T06:37:15.858Z,232.00
2023-03-23T06:38:15.833Z,216.00
2023-03-23T06:39:15.824Z,198.00
2023-03-23T06:40:15.843Z,178.00
2023-03-23T06:41:15.809Z,161.00
2023-03-23T06:42:15.804Z,151.00
2023-03-23T06:43:15.798Z,147.00
2023-03-23T06:44:15.799Z,145.00
2023-03-23T06:45:15.801Z,147.00
2023-03-23T06:46:15.784Z,155.00
2023-03-23T06:47:15.765Z,168.00
2023-03-23T06:48:15.762Z,189.00
2023-03-23T06:49:15.755Z,215.00
2023-03-23T06:50:15.758Z,245.00
2023-03-23T06:51:15.736Z,279.00
2023-03-23T06:52:15.753Z,302.00
2023-03-23T06:53:15.717Z,309.00
2023-03-23T06:54:15.738Z,305.00
2023-03-23T06:55:15.708Z,295.00
2023-03-23T06:56:15.700Z,289.00
2023-03-23T06:57:15.717Z,285.00
2023-03-23T06:58:15.712Z,267.00
2023-03-23T06:59:15.697Z,257.00
2023-03-23T07:00:15.678Z,251.00
2023-03-23T07:01:15.684Z,258.00
2023-03-23T07:02:15.674Z,296.00
2023-03-23T07:03:15.640Z,364.00
2023-03-23T07:04:15.661Z,470.00
2023-03-23T07:05:15.635Z,598.00
2023-03-23T07:06:15.640Z,741.00
2023-03-23T07:07:15.620Z,882.00
2023-03-23T07:08:15.622Z,1062.00
2023-03-23T07:09:15.625Z,1378.00
2023-03-23T07:10:15.613Z,2025.00
2023-03-23T07:11:15.592Z,3379.00
2023-03-23T07:12:15.591Z,6142.00
2023-03-23T07:13:15.585Z,8367.00
2023-03-23T07:14:15.612Z,9302.00
2023-03-23T07:15:15.549Z,7383.00
2023-03-23T07:16:15.554Z,6430.00
2023-03-23T07:17:15.558Z,5022.00
2023-03-23T07:18:15.555Z,3199.00
2023-03-23T07:19:15.531Z,3614.00
2023-03-23T07:20:15.555Z,2032.00
2023-03-23T07:21:15.514Z,1703.00
2023-03-23T07:22:15.509Z,1581.00
2023-03-23T07:23:15.505Z,1491.00
2023-03-23T07:24:15.507Z,1439.00
2023-03-23T07:25:15.491Z,1331.00
2023-03-23T07:26:15.498Z,1273.00
2023-03-23T07:27:15.472Z,1235.00
2023-03-23T07:28:15.468Z,1199.00
2023-03-23T07:29:15.454Z,1184.00
2023-03-23T07:30:15.453Z,1188.00
2023-03-23T07:31:15.457Z,1177.00
2023-03-23T07:32:15.451Z,1079.00
2023-03-23T07:33:15.453Z,987.00
2023-03-23T07:34:15.423Z,947.00
2023-03-23T07:35:15.410Z,916.00
2023-03-23T07:36:15.463Z,911.00
2023-03-23T07:37:15.394Z,946.00
2023-03-23T07:38:15.409Z,1015.00
2023-03-23T07:39:15.575Z,1113.00
2023-03-23T07:40:15.376Z,1334.00
2023-03-23T07:41:15.444Z,1396.00
2023-03-23T07:42:15.353Z,1473.00
2023-03-23T07:43:15.346Z,1233.00
2023-03-23T07:44:15.363Z,1143.00
2023-03-23T07:45:15.337Z,1076.00
2023-03-23T07:46:15.341Z,1015.00
2023-03-23T07:47:15.319Z,952.00
2023-03-23T07:48:21.077Z,885.00
2023-03-23T07:49:16.293Z,815.00
2023-03-23T07:50:15.290Z,764.00
2023-03-23T07:51:15.298Z,708.00
2023-03-23T07:52:15.315Z,649.00
2023-03-23T07:53:15.255Z,610.00
2023-03-23T07:54:15.251Z,598.00
2023-03-23T07:55:15.245Z,589.00
2023-03-23T07:56:15.251Z,599.00
2023-03-23T07:57:15.244Z,629.00
2023-03-23T07:58:15.277Z,667.00
2023-03-23T07:59:15.218Z,703.00
2023-03-23T08:00:15.205Z,727.00
2023-03-23T08:01:15.220Z,711.00
2023-03-23T08:02:15.209Z,657.00
2023-03-23T08:03:15.216Z,621.00
2023-03-23T08:04:15.182Z,605.00
2023-03-23T08:05:15.168Z,621.00
2023-03-23T08:06:15.168Z,663.00
2023-03-23T08:07:15.147Z,716.00
2023-03-23T08:08:15.149Z,785.00
2023-03-23T08:09:15.161Z,916.00
2023-03-23T08:10:15.135Z,1108.00
2023-03-23T08:11:15.144Z,1172.00
2023-03-23T08:12:15.128Z,1384.00
2023-03-23T08:13:15.148Z,1190.00
2023-03-23T08:14:18.743Z,1110.00
2023-03-23T08:15:16.094Z,1117.00
2023-03-23T08:16:15.292Z,1150.00
2023-03-23T08:17:15.092Z,1194.00
2023-03-23T08:18:15.065Z,1379.00
2023-03-23T08:19:15.049Z,1515.00
2023-03-23T08:20:15.058Z,1680.00
2023-03-23T08:21:15.103Z,1890.00
2023-03-23T08:22:15.024Z,1864.00
2023-03-23T08:23:15.016Z,1778.00
2023-03-23T08:24:15.025Z,1588.00
2023-03-23T08:25:14.989Z,1361.00
2023-03-23T08:26:14.989Z,1335.00
2023-03-23T08:27:14.987Z,1554.00
2023-03-23T08:28:15.004Z,1533.00
2023-03-23T08:29:14.975Z,1481.00
2023-03-23T08:30:14.960Z,1651.00
2023-03-23T08:31:14.948Z,2678.00
2023-03-23T08:32:14.950Z,3002.00
2023-03-23T08:33:14.966Z,2634.00
2023-03-23T08:34:14.935Z,2224.00
2023-03-23T08:35:14.934Z,2023.00
2023-03-23T08:36:15.010Z,3331.00
2023-03-23T08:37:14.926Z,1557.00
2023-03-23T08:38:14.920Z,1346.00
2023-03-23T08:39:14.907Z,1244.00
2023-03-23T08:40:16.464Z,1139.00
2023-03-23T08:41:14.897Z,1050.00
2023-03-23T08:42:14.906Z,986.00
2023-03-23T08:43:14.867Z,942.00
2023-03-23T08:44:14.883Z,909.00
2023-03-23T08:45:14.864Z,883.00
2023-03-23T08:46:14.864Z,874.00
2023-03-23T08:47:14.858Z,865.00
2023-03-23T08:48:14.842Z,855.00
2023-03-23T08:49:14.823Z,864.00
2023-03-23T08:50:14.824Z,873.00
2023-03-23T08:51:14.809Z,886.00
2023-03-23T08:52:14.843Z,891.00
2023-03-23T08:53:14.796Z,1005.00
2023-03-23T08:54:14.811Z,1130.00
2023-03-23T08:55:14.785Z,1211.00
2023-03-23T08:56:14.793Z,1264.00
2023-03-23T08:57:14.784Z,1277.00
2023-03-23T08:58:14.760Z,1258.00
2023-03-23T08:59:14.777Z,1216.00
2023-03-23T09:00:14.747Z,1153.00
2023-03-23T09:01:14.738Z,1080.00
2023-03-23T09:02:14.737Z,1016.00
2023-03-23T09:03:14.725Z,984.00
2023-03-23T09:04:14.737Z,958.00
2023-03-23T09:05:14.735Z,1004.00
2023-03-23T09:06:14.709Z,1051.00
2023-03-23T09:07:14.691Z,1047.00
2023-03-23T09:08:14.699Z,1023.00
2023-03-23T09:09:14.686Z,948.00
2023-03-23T09:10:14.673Z,897.00
2023-03-23T09:11:14.658Z,849.00
2023-03-23T09:12:14.641Z,853.00
2023-03-23T09:13:14.641Z,866.00
2023-03-23T09:14:14.647Z,894.00
2023-03-23T09:15:16.629Z,896.00
2023-03-23T09:16:14.639Z,868.00
2023-03-23T09:17:14.610Z,831.00
2023-03-23T09:18:14.628Z,808.00
2023-03-23T09:19:14.602Z,804.00
2023-03-23T09:20:14.589Z,831.00
2023-03-23T09:21:18.745Z,828.00
2023-03-23T09:22:14.580Z,801.00
2023-03-23T09:23:14.582Z,838.00
2023-03-23T09:24:14.571Z,949.00
2023-03-23T09:25:14.541Z,981.00
2023-03-23T09:26:14.581Z,1022.00
2023-03-23T09:27:14.556Z,1061.00
2023-03-23T09:28:14.522Z,1112.00
2023-03-23T09:29:14.533Z,1135.00
2023-03-23T09:30:14.514Z,1075.00
2023-03-23T09:31:14.500Z,1016.00
2023-03-23T09:32:14.490Z,1056.00
2023-03-23T09:33:14.487Z,1036.00
2023-03-23T09:34:14.485Z,978.00
2023-03-23T09:35:14.498Z,988.00
2023-03-23T09:36:14.528Z,970.00
2023-03-23T09:37:14.455Z,946.00
2023-03-23T09:38:14.453Z,985.00
2023-03-23T09:39:14.443Z,984.00
2023-03-23T09:40:14.459Z,964.00
2023-03-23T09:41:14.420Z,933.00
2023-03-23T09:42:14.428Z,935.00
2023-03-23T09:43:14.408Z,1015.00
2023-03-23T09:44:14.411Z,1042.00
2023-03-23T09:45:14.392Z,1024.00
2023-03-23T09:46:14.404Z,1073.00
2023-03-23T09:47:14.373Z,1101.00
2023-03-23T09:48:14.397Z,1090.00
2023-03-23T09:49:14.373Z,1144.00
2023-03-23T09:50:14.365Z,1231.00
2023-03-23T09:51:14.351Z,1293.00
2023-03-23T09:52:14.341Z,1273.00
2023-03-23T09:53:14.364Z,1354.00
2023-03-23T09:54:14.330Z,1386.00
2023-03-23T09:55:14.316Z,1414.00
2023-03-23T09:56:14.302Z,1445.00
2023-03-23T09:57:14.309Z,1365.00
2023-03-23T09:58:14.296Z,1334.00
2023-03-23T09:59:14.300Z,1369.00
2023-03-23T10:00:14.276Z,1454.00
2023-03-23T10:01:14.274Z,1465.00
2023-03-23T10:02:14.252Z,1488.00
2023-03-23T10:03:14.275Z,1609.00
2023-03-23T10:04:14.252Z,1787.00
2023-03-23T10:05:14.255Z,1855.00
2023-03-23T10:06:14.243Z,1787.00
2023-03-23T10:07:14.216Z,1866.00
2023-03-23T10:08:14.206Z,1895.00
2023-03-23T10:09:14.223Z,1946.00
2023-03-23T10:10:14.202Z,1870.00
2023-03-23T10:11:14.176Z,1738.00
2023-03-23T10:12:14.195Z,1579.00
2023-03-23T10:13:14.168Z,1439.00
2023-03-23T10:14:14.161Z,1359.00
2023-03-23T10:15:14.165Z,1333.00
2023-03-23T10:16:14.151Z,1312.00
2023-03-23T10:17:14.142Z,1262.00
2023-03-23T10:18:14.159Z,1188.00
2023-03-23T10:19:14.138Z,1107.00
2023-03-23T10:20:14.110Z,1063.00
2023-03-23T10:21:14.099Z,1043.00
2023-03-23T10:22:14.115Z,1061.00
2023-03-23T10:23:14.083Z,1086.00
2023-03-23T10:24:14.080Z,1107.00
2023-03-23T10:25:14.061Z,1088.00
2023-03-23T10:26:14.087Z,1040.00
2023-03-23T10:27:14.052Z,1006.00
2023-03-23T10:28:14.065Z,978.00
2023-03-23T10:29:14.055Z,947.00
2023-03-23T10:30:14.062Z,946.00
2023-03-23T10:31:14.021Z,945.00
2023-03-23T10:32:14.025Z,935.00
2023-03-23T10:33:14.006Z,954.00
2023-03-23T10:34:14.017Z,979.00
2023-03-23T10:35:13.989Z,982.00
2023-03-23T10:36:14.040Z,918.00
2023-03-23T10:37:13.985Z,820.00
2023-03-23T10:38:13.982Z,762.00
2023-03-23T10:39:13.953Z,722.00
2023-03-23T10:40:13.966Z,691.00
2023-03-23T10:41:14.941Z,682.00
2023-03-23T10:42:13.938Z,759.00
2023-03-23T10:43:13.948Z,889.00
2023-03-23T10:44:13.919Z,970.00
2023-03-23T10:45:13.928Z,953.00
2023-03-23T10:46:22.928Z,895.00
2023-03-23T10:47:13.888Z,856.00
2023-03-23T10:48:13.900Z,873.00
2023-03-23T10:49:13.872Z,936.00
2023-03-23T10:50:13.871Z,1006.00
2023-03-23T10:51:13.902Z,962.00
2023-03-23T10:52:13.863Z,949.00
2023-03-23T10:53:13.845Z,983.00
2023-03-23T10:54:13.848Z,1069.00
2023-03-23T10:55:13.844Z,1188.00
2023-03-23T10:56:13.814Z,1276.00
2023-03-23T10:57:13.805Z,1266.00
2023-03-23T10:58:13.800Z,1324.00
2023-03-23T10:59:13.803Z,1459.00
2023-03-23T11:00:13.782Z,1529.00
2023-03-23T11:01:13.810Z,1478.00
2023-03-23T11:02:21.038Z,1483.00
2023-03-23T11:03:14.765Z,1606.00
2023-03-23T11:04:13.749Z,1901.00
2023-03-23T11:05:19.972Z,1840.00
2023-03-23T11:06:14.754Z,1829.00
2023-03-23T11:07:13.764Z,1584.00
2023-03-23T11:08:13.733Z,1352.00
2023-03-23T11:09:13.723Z,1173.00
2023-03-23T11:10:13.702Z,1105.00
2023-03-23T11:11:13.685Z,1142.00
2023-03-23T11:12:13.701Z,1176.00
2023-03-23T11:13:13.679Z,1276.00
2023-03-23T11:14:13.668Z,1322.00
2023-03-23T11:15:13.673Z,1373.00
2023-03-23T11:16:13.681Z,1535.00
2023-03-23T11:17:15.852Z,1704.00
2023-03-23T11:18:13.621Z,1987.00
2023-03-23T11:19:13.623Z,2121.00
2023-03-23T11:20:13.616Z,1984.00
2023-03-23T11:21:13.603Z,1780.00
2023-03-23T11:22:13.618Z,1557.00
2023-03-23T11:23:13.583Z,1509.00
2023-03-23T11:24:13.584Z,1713.00
2023-03-23T11:25:14.444Z,2222.00
2023-03-23T11:26:13.560Z,2705.00
2023-03-23T11:27:13.560Z,2954.00
2023-03-23T11:28:13.565Z,3528.00
2023-03-23T11:29:13.540Z,3464.00
2023-03-23T11:30:13.524Z,2684.00
2023-03-23T11:31:13.541Z,2841.00
2023-03-23T11:32:13.520Z,2650.00
2023-03-23T11:33:13.532Z,3184.00
2023-03-23T11:34:13.495Z,2930.00
2023-03-23T11:35:16.380Z,3139.00
2023-03-23T11:36:13.518Z,3444.00
2023-03-23T11:37:13.497Z,3714.00
2023-03-23T11:38:13.462Z,2822.00
2023-03-23T11:39:13.453Z,2130.00
2023-03-23T11:40:13.443Z,1662.00
2023-03-23T11:41:13.436Z,1443.00
2023-03-23T11:42:13.444Z,1422.00
2023-03-23T11:43:13.439Z,1412.00
2023-03-23T11:44:13.414Z,1435.00
2023-03-23T11:45:13.430Z,1581.00
2023-03-23T11:46:13.416Z,1642.00
2023-03-23T11:47:13.387Z,1572.00
2023-03-23T11:48:13.397Z,1443.00
2023-03-23T11:49:25.123Z,1378.00
2023-03-23T11:50:14.406Z,1343.00
2023-03-23T11:51:13.355Z,1254.00
2023-03-23T11:52:13.348Z,1250.00
2023-03-23T11:53:13.363Z,1248.00
2023-03-23T11:54:13.326Z,1082.00
2023-03-23T11:55:13.435Z,876.00
2023-03-23T11:56:13.331Z,631.00
2023-03-23T11:57:13.317Z,460.00
2023-03-23T11:58:13.287Z,384.00
2023-03-23T11:59:13.296Z,324.00
2023-03-23T12:00:13.280Z,284.00
2023-03-23T12:01:13.264Z,298.00
2023-03-23T12:02:17.120Z,343.00
2023-03-23T12:03:13.256Z,415.00
2023-03-23T12:04:13.237Z,538.00
2023-03-23T12:05:13.238Z,690.00
2023-03-23T12:06:13.235Z,711.00
2023-03-23T12:07:13.205Z,663.00
2023-03-23T12:08:13.206Z,653.00
2023-03-23T12:09:13.194Z,566.00
2023-03-23T12:10:14.145Z,492.00
2023-03-23T12:11:13.186Z,428.00
2023-03-23T12:12:13.176Z,413.00
2023-03-23T12:13:16.041Z,407.00
2023-03-23T12:14:14.160Z,412.00
2023-03-23T12:15:13.151Z,439.00
2023-03-23T12:16:13.153Z,469.00
2023-03-23T12:17:13.113Z,497.00
2023-03-23T12:18:13.115Z,524.00
2023-03-23T12:19:13.103Z,555.00
2023-03-23T12:20:13.114Z,544.00
2023-03-23T12:21:14.577Z,446.00
2023-03-23T12:22:13.098Z,342.00
2023-03-23T12:23:13.078Z,269.00
2023-03-23T12:24:13.069Z,212.00
2023-03-23T12:25:13.059Z,181.00
2023-03-23T12:26:13.076Z,169.00
2023-03-23T12:27:13.039Z,174.00
2023-03-23T12:28:13.064Z,179.00
2023-03-23T12:29:13.029Z,176.00
2023-03-23T12:30:13.026Z,177.00
2023-03-23T12:31:13.009Z,182.00
2023-03-23T12:32:13.011Z,187.00
2023-03-23T12:33:13.025Z,208.00
2023-03-23T12:34:13.016Z,227.00
2023-03-23T12:35:12.988Z,251.00
2023-03-23T12:36:12.982Z,285.00
2023-03-23T12:37:12.972Z,331.00
2023-03-23T12:38:12.948Z,388.00
2023-03-23T12:39:12.948Z,440.00
2023-03-23T12:40:12.937Z,482.00
2023-03-23T12:41:12.953Z,494.00
2023-03-23T12:42:12.935Z,480.00
2023-03-23T12:43:12.912Z,481.00
2023-03-23T12:44:12.905Z,492.00